Time;durP1;ratioP1;P1;durP2;ratioP2;P2;SDS_P1;SDS_P2;PMS_P1;PMS_P2;Temp;Humidity;BMP_temperature;BMP_pressure;BME280_temperature;BME280_humidity;BME280_pressure;Samples;Min_cycle;Max_cycle;Signal;HPM_P1;HPM_P2
2021/01/27 00:01:42;;;;;;;23.92;13.30;;;;;;;1.14;82.66;99948.16;5074944;28;20487;-72
2021/01/27 00:04:07;;;;;;;25.70;13.10;;;;;;;1.21;83.00;99962.00;5076345;28;20036;-73
2021/01/27 00:06:33;;;;;;;27.55;14.32;;;;;;;1.07;83.51;99963.25;5074961;28;20067;-75
2021/01/27 00:08:58;;;;;;;26.60;14.07;;;;;;;1.09;84.09;99977.19;5074960;28;20036;-73
2021/01/27 00:11:23;;;;;;;28.13;15.23;;;;;;;1.05;84.61;99983.41;5058335;28;20044;-72
2021/01/27 00:13:49;;;;;;;26.52;14.63;;;;;;;1.13;84.65;99984.09;5074662;28;20078;-72
2021/01/27 00:16:15;;;;;;;27.85;14.98;;;;;;;1.11;83.90;99985.91;5075037;28;20090;-72
2021/01/27 00:18:40;;;;;;;32.33;16.02;;;;;;;1.11;84.47;99983.28;5075634;28;20455;-73
2021/01/27 00:21:05;;;;;;;31.10;15.32;;;;;;;1.00;84.55;99972.19;5058182;28;20048;-73
2021/01/27 00:23:31;;;;;;;34.10;15.75;;;;;;;0.82;84.66;99941.13;5076245;28;20063;-72
2021/01/27 00:25:56;;;;;;;31.75;16.05;;;;;;;0.99;84.39;99975.72;5057596;28;20041;-72
2021/01/27 00:28:22;;;;;;;30.83;15.57;;;;;;;0.90;84.78;99967.22;5075681;28;20028;-72
2021/01/27 00:30:47;;;;;;;29.42;14.77;;;;;;;0.86;85.01;99974.28;5075634;28;20111;-72
2021/01/27 00:33:15;;;;;;;27.25;14.25;;;;;;;0.84;84.50;99983.97;5041330;28;20029;-70
2021/01/27 00:35:44;;;;;;;26.75;14.02;;;;;;;0.81;84.85;99986.69;5074060;28;20478;-71
2021/01/27 00:38:12;;;;;;;30.27;15.55;;;;;;;0.75;84.87;99986.81;5075512;28;20028;-70
2021/01/27 00:40:38;;;;;;;30.67;14.43;;;;;;;0.71;85.43;99982.56;5074519;28;20037;-72
2021/01/27 00:43:03;;;;;;;26.30;13.32;;;;;;;0.74;85.22;99982.47;5037594;28;20044;-71
2021/01/27 00:45:29;;;;;;;31.95;15.25;;;;;;;0.31;84.97;99932.78;5037645;28;20071;-71
2021/01/27 00:47:55;;;;;;;27.95;13.80;;;;;;;0.68;84.46;99985.25;5055047;28;20274;-71
2021/01/27 00:50:20;;;;;;;22.73;11.82;;;;;;;0.52;82.55;99969.00;5055635;28;20477;-71
2021/01/27 00:52:46;;;;;;;21.92;10.95;;;;;;;0.60;80.62;99977.56;5055147;28;20037;-72
2021/01/27 00:55:18;;;;;;;19.42;10.43;;;;;;;0.46;79.28;99969.13;5055511;28;20474;-70
2021/01/27 00:57:43;;;;;;;22.45;10.00;;;;;;;0.48;79.19;99973.47;5055314;28;20024;-72
2021/01/27 01:00:33;;;;;;;18.92;10.30;;;;;;;0.49;78.95;99980.44;5055948;28;20496;-71
2021/01/27 01:02:59;;;;;;;19.42;10.50;;;;;;;0.42;79.14;99988.50;5059704;28;20033;-70
2021/01/27 01:05:30;;;;;;;20.35;10.60;;;;;;;0.31;79.14;99975.63;5040023;28;20037;-72
2021/01/27 01:07:56;;;;;;;19.58;10.25;;;;;;;0.04;80.23;99969.22;5056967;28;20862;-72
2021/01/27 01:10:32;;;;;;;17.73;9.02;;;;;;;0.16;78.96;99987.31;5055438;28;20103;-74
2021/01/27 01:12:59;;;;;;;15.73;9.05;;;;;;;0.02;76.41;99946.56;5054682;28;20028;-72
2021/01/27 01:15:27;;;;;;;15.80;8.23;;;;;;;-0.10;76.86;99948.53;5055223;28;20037;-72
2021/01/27 01:17:53;;;;;;;13.27;8.18;;;;;;;-0.32;76.81;99924.53;5054607;28;20032;-71
2021/01/27 01:20:19;;;;;;;18.00;9.07;;;;;;;-0.22;77.27;99959.28;5054972;28;20032;-71
2021/01/27 01:22:47;;;;;;;14.20;8.18;;;;;;;-0.40;77.83;99959.66;5054394;28;20060;-71
2021/01/27 01:25:14;;;;;;;14.52;8.30;;;;;;;-0.18;77.95;99997.66;5036765;28;20040;-70
2021/01/27 01:27:42;;;;;;;13.98;8.00;;;;;;;-0.14;77.19;99999.31;5036548;28;20539;-72
2021/01/27 01:30:15;;;;;;;17.85;8.75;;;;;;;-0.22;78.26;100001.22;5036828;28;20029;-70
2021/01/27 01:32:41;;;;;;;14.82;8.05;;;;;;;-0.22;77.11;100000.38;5054374;28;20473;-71
2021/01/27 01:35:07;;;;;;;16.55;8.52;;;;;;;-0.24;77.38;100008.25;5036743;28;20069;-72
2021/01/27 01:37:33;;;;;;;15.48;9.02;;;;;;;-0.30;77.76;99993.50;5020167;28;20033;-72
2021/01/27 01:39:58;;;;;;;15.25;8.70;;;;;;;-0.31;78.15;100009.28;5054225;28;20559;-71
2021/01/27 01:42:23;;;;;;;14.45;8.65;;;;;;;-0.41;79.33;100007.72;5063419;28;20060;-72
2021/01/27 01:44:49;;;;;;;16.58;8.90;;;;;;;-0.38;79.28;100005.94;5073826;28;20068;-70
2021/01/27 01:47:15;;;;;;;15.70;8.57;;;;;;;-0.54;79.62;99987.91;5072514;28;20086;-71
2021/01/27 01:49:40;;;;;;;16.27;8.77;;;;;;;-0.61;80.36;99993.25;5074295;28;20051;-72
2021/01/27 01:52:06;;;;;;;17.55;9.30;;;;;;;-0.59;81.11;99999.31;5072919;28;20044;-72
2021/01/27 01:54:43;;;;;;;18.83;9.75;;;;;;;-0.55;81.56;100001.91;5074361;28;20036;-71
2021/01/27 01:57:21;;;;;;;17.50;8.93;;;;;;;-0.73;81.49;99982.16;5074315;28;20029;-71
2021/01/27 01:59:53;;;;;;;21.02;9.95;;;;;;;-0.65;81.87;100002.06;5073638;28;20094;-71
2021/01/27 02:02:20;;;;;;;18.53;9.43;;;;;;;-0.78;82.24;99978.72;5074023;28;20111;-71
2021/01/27 02:04:53;;;;;;;16.77;9.57;;;;;;;-0.77;82.58;100002.31;5072538;28;20098;-71
2021/01/27 02:07:19;;;;;;;17.30;8.98;;;;;;;-0.76;82.21;100003.16;5074037;28;20032;-71
2021/01/27 02:09:45;;;;;;;17.48;9.32;;;;;;;-0.80;82.31;100007.56;5073406;28;20032;-71
2021/01/27 02:12:25;;;;;;;18.88;9.85;;;;;;;-0.78;81.81;100003.16;5072562;28;20035;-71
2021/01/27 02:15:07;;;;;;;16.75;9.25;;;;;;;-0.69;80.73;100003.00;5073836;28;20386;-71
2021/01/27 02:17:58;;;;;;;16.27;9.27;;;;;;;-0.74;80.59;100001.38;5073843;28;20446;-70
2021/01/27 02:20:24;;;;;;;16.65;9.60;;;;;;;-0.67;80.30;99995.16;5073654;28;20181;-70
2021/01/27 02:23:07;;;;;;;15.85;9.20;;;;;;;-0.63;79.81;99994.19;5073469;28;20505;-71
2021/01/27 02:25:44;;;;;;;16.98;9.30;;;;;;;-0.73;80.05;99992.63;5073614;28;20043;-70
2021/01/27 02:28:20;;;;;;;15.55;8.85;;;;;;;-0.77;80.42;99989.22;5073592;28;20028;-71
2021/01/27 02:30:50;;;;;;;16.35;9.35;;;;;;;-0.93;80.84;99974.66;5073015;28;20074;-72
2021/01/27 02:33:43;;;;;;;18.85;9.70;;;;;;;-0.82;80.67;99988.41;5073823;28;20036;-70
2021/01/27 02:36:23;;;;;;;14.83;8.50;;;;;;;-0.80;80.95;99980.53;5073374;28;20504;-73
2021/01/27 02:39:12;;;;;;;16.13;8.55;;;;;;;-0.78;79.91;99987.44;5072966;28;20028;-72
2021/01/27 02:42:00;;;;;;;16.42;8.70;;;;;;;-0.75;79.14;99987.41;5064429;28;20061;-73
2021/01/27 02:44:34;;;;;;;14.23;8.23;;;;;;;-0.74;79.01;99986.53;5053098;28;20491;-75
2021/01/27 02:47:06;;;;;;;15.60;8.68;;;;;;;-0.78;78.72;99970.88;5052845;28;20463;-74
2021/01/27 02:49:53;;;;;;;16.90;8.77;;;;;;;-0.75;79.31;99987.41;5053130;28;20063;-76
2021/01/27 02:52:26;;;;;;;15.30;8.52;;;;;;;-0.79;78.92;99984.88;5053173;28;20036;-74
2021/01/27 02:54:59;;;;;;;15.98;8.55;;;;;;;-0.66;78.01;99994.25;5052846;28;20082;-75
2021/01/27 02:57:53;;;;;;;13.98;7.88;;;;;;;-0.55;77.75;99996.66;5034802;28;20116;-75
2021/01/27 03:00:26;;;;;;;15.98;8.60;;;;;;;-0.57;78.11;99987.97;5041375;28;20094;-76
2021/01/27 03:03:25;;;;;;;15.95;9.10;;;;;;;-0.63;78.40;99988.94;5035019;28;20031;-71
2021/01/27 03:05:57;;;;;;;16.95;8.82;;;;;;;-0.64;78.35;99995.94;5052576;28;20070;-73
2021/01/27 03:08:35;;;;;;;15.90;8.35;;;;;;;-0.68;78.35;100001.25;5053078;28;20021;-73
2021/01/27 03:11:09;;;;;;;14.90;8.68;;;;;;;-0.80;78.76;99994.47;5052739;28;20041;-75
2021/01/27 03:13:36;;;;;;;16.38;9.05;;;;;;;-0.71;78.36;100001.31;5053200;28;20033;-73
2021/01/27 03:16:07;;;;;;;17.02;9.13;;;;;;;-0.63;78.31;100005.53;5052571;28;20025;-73
2021/01/27 03:18:36;;;;;;;12.52;7.38;;;;;;;-0.76;78.00;99961.25;5052791;28;20064;-71
2021/01/27 03:21:10;;;;;;;14.57;8.45;;;;;;;-0.62;78.32;99995.91;5052560;28;20025;-70
2021/01/27 03:24:08;;;;;;;15.38;8.43;;;;;;;-0.52;78.00;99999.22;5051543;28;20433;-71
2021/01/27 03:26:54;;;;;;;15.10;8.45;;;;;;;-0.52;77.84;100002.69;5033397;28;20060;-72
2021/01/27 03:29:43;;;;;;;16.60;9.25;;;;;;;-0.58;78.00;100005.41;5052620;28;20453;-71
2021/01/27 03:32:19;;;;;;;16.00;7.97;;;;;;;-0.86;80.11;99984.13;5038761;28;20041;-71
2021/01/27 03:34:47;;;;;;;17.30;9.23;;;;;;;-0.82;81.21;100008.50;5052763;28;20033;-71
2021/01/27 03:37:18;;;;;;;17.13;8.98;;;;;;;-1.01;81.88;100002.72;5052597;28;20126;-71
2021/01/27 03:39:48;;;;;;;17.95;9.68;;;;;;;-0.96;82.41;100008.75;5052474;28;20374;-72
2021/01/27 03:42:25;;;;;;;18.58;10.38;;;;;;;-0.95;82.95;100013.97;5042356;28;20059;-72
2021/01/27 03:45:05;;;;;;;18.13;9.98;;;;;;;-1.02;82.86;100008.84;5071147;28;20409;-71
2021/01/27 03:47:45;;;;;;;16.60;8.88;;;;;;;-1.01;82.99;100015.81;5072689;28;20433;-70
2021/01/27 03:50:15;;;;;;;20.45;11.35;;;;;;;-1.22;83.34;99962.94;5072528;28;20071;-71
2021/01/27 03:53:12;;;;;;;19.77;9.98;;;;;;;-1.11;83.63;99996.78;5072533;28;20066;-71
2021/01/27 03:56:01;;;;;;;21.10;11.68;;;;;;;-1.04;84.08;100008.03;5072503;28;20020;-71
2021/01/27 03:58:36;;;;;;;22.80;9.98;;;;;;;-1.07;84.15;100005.44;5071052;28;20032;-71
2021/01/27 04:01:14;;;;;;;21.75;12.05;;;;;;;-1.36;83.87;99957.06;5072580;28;20029;-72
2021/01/27 04:03:40;;;;;;;22.33;12.20;;;;;;;-1.36;84.58;99970.13;5072820;28;20032;-71
2021/01/27 04:06:07;;;;;;;25.38;12.60;;;;;;;-1.23;84.20;100003.09;5054221;28;20543;-70
2021/01/27 04:08:32;;;;;;;25.17;12.70;;;;;;;-1.10;84.49;100010.72;5072324;28;20028;-70
2021/01/27 04:10:59;;;;;;;26.10;12.50;;;;;;;-1.08;84.29;100011.56;5075735;28;20039;-71
2021/01/27 04:13:25;;;;;;;23.85;12.40;;;;;;;-1.26;84.39;100000.50;5076183;28;20037;-70
2021/01/27 04:15:51;;;;;;;24.60;13.10;;;;;;;-1.25;84.66;99994.41;5074691;28;20029;-72
2021/01/27 04:18:16;;;;;;;23.70;12.88;;;;;;;-1.51;85.09;99973.88;5076190;28;20032;-71
2021/01/27 04:20:41;;;;;;;22.27;12.30;;;;;;;-1.26;84.82;100015.34;5074661;28;20396;-71
2021/01/27 04:23:07;;;;;;;22.80;13.55;;;;;;;-1.14;84.21;100011.69;5074632;28;20075;-71
2021/01/27 04:25:32;;;;;;;26.67;13.35;;;;;;;-1.27;84.50;99993.53;5078865;28;20036;-71
2021/01/27 04:27:58;;;;;;;23.17;12.02;;;;;;;-1.22;84.45;100009.19;5076765;28;20041;-71
2021/01/27 04:30:29;;;;;;;25.88;12.80;;;;;;;-1.17;84.53;100002.97;5076592;28;20033;-71
2021/01/27 04:32:55;;;;;;;23.15;12.63;;;;;;;-1.12;84.09;100009.91;5074372;28;20029;-70
2021/01/27 04:35:20;;;;;;;25.88;13.48;;;;;;;-1.11;83.60;100001.16;5074377;28;20090;-70
2021/01/27 04:37:46;;;;;;;24.52;13.18;;;;;;;-1.20;83.65;99992.56;5074319;28;20492;-70
2021/01/27 04:40:25;;;;;;;23.48;12.80;;;;;;;-1.27;83.52;99975.22;5074026;28;20077;-72
2021/01/27 04:42:52;;;;;;;22.40;11.60;;;;;;;-1.10;83.46;100013.34;5056866;28;20049;-72
2021/01/27 04:45:19;;;;;;;23.88;11.80;;;;;;;-0.98;82.67;100018.38;5055332;28;20110;-72
2021/01/27 04:47:50;;;;;;;24.15;13.18;;;;;;;-0.95;82.24;100018.34;5055494;28;20091;-71
2021/01/27 04:50:26;;;;;;;18.48;9.95;;;;;;;-0.97;82.19;100018.34;5055633;28;20493;-70
2021/01/27 04:53:20;;;;;;;26.95;13.57;;;;;;;-1.02;82.73;100016.72;5055627;28;20036;-76
2021/01/27 04:56:13;;;;;;;23.23;12.50;;;;;;;-1.02;82.54;100027.19;5055629;28;20068;-70
2021/01/27 04:59:08;;;;;;;24.07;13.27;;;;;;;-1.01;81.75;100019.28;5055151;28;20029;-71
2021/01/27 05:01:55;;;;;;;25.83;12.93;;;;;;;-0.94;81.58;100038.38;5055393;28;20061;-70
2021/01/27 05:04:23;;;;;;;21.63;11.55;;;;;;;-0.91;81.40;100038.31;5055125;28;20052;-73
2021/01/27 05:06:55;;;;;;;22.73;12.07;;;;;;;-0.92;81.36;100033.97;5055051;28;20029;-72
2021/01/27 05:09:34;;;;;;;27.40;13.63;;;;;;;-1.00;81.45;100031.50;5055275;28;20538;-73
2021/01/27 05:12:04;;;;;;;24.25;12.70;;;;;;;-0.99;81.00;100027.13;5054443;28;20037;-73
2021/01/27 05:14:30;;;;;;;24.33;12.18;;;;;;;-0.93;80.82;100037.50;5055163;28;20116;-73
2021/01/27 05:17:01;;;;;;;25.48;13.32;;;;;;;-0.93;80.79;100027.03;5054544;28;20040;-73
2021/01/27 05:19:27;;;;;;;23.25;12.23;;;;;;;-0.89;80.01;100031.31;5054775;28;20029;-71
2021/01/27 05:21:58;;;;;;;22.83;12.95;;;;;;;-0.89;80.68;100028.69;5036637;28;20059;-71
2021/01/27 05:24:23;;;;;;;21.63;11.60;;;;;;;-1.19;80.96;99985.56;5020483;28;20040;-72
2021/01/27 05:26:58;;;;;;;23.63;12.68;;;;;;;-0.91;80.87;100030.47;5054586;28;20478;-72
2021/01/27 05:29:30;;;;;;;23.10;12.55;;;;;;;-0.92;81.13;100029.59;5020342;28;20035;-72
2021/01/27 05:32:12;;;;;;;24.90;12.50;;;;;;;-1.13;81.46;99992.47;5054517;28;20041;-71
2021/01/27 05:34:45;;;;;;;28.70;14.02;;;;;;;-0.95;81.24;100023.56;5054831;28;20249;-67
2021/01/27 05:37:34;;;;;;;25.58;13.45;;;;;;;-0.87;80.98;100026.91;5054186;28;20029;-70
2021/01/27 05:40:14;;;;;;;27.23;14.38;;;;;;;-0.87;80.64;100032.13;5054243;28;20079;-70
2021/01/27 05:42:42;;;;;;;29.52;14.40;;;;;;;-0.82;80.23;100030.31;5054113;28;20072;-71
2021/01/27 05:45:30;;;;;;;28.60;14.77;;;;;;;-0.90;80.72;100021.72;5054135;28;20025;-71
2021/01/27 05:48:10;;;;;;;28.77;14.82;;;;;;;-1.03;80.80;100004.50;5054239;28;20029;-72
2021/01/27 05:50:41;;;;;;;28.85;14.70;;;;;;;-1.01;81.05;100015.81;5053969;28;20036;-72
2021/01/27 05:53:19;;;;;;;26.75;13.88;;;;;;;-1.14;81.69;100001.22;5053998;28;20036;-73
2021/01/27 05:56:12;;;;;;;27.63;14.18;;;;;;;-1.01;81.26;100015.81;5054157;28;20033;-72
2021/01/27 05:59:02;;;;;;;28.92;14.18;;;;;;;-1.12;82.03;100009.91;5054309;28;20445;-72
2021/01/27 06:01:34;;;;;;;29.58;14.75;;;;;;;-1.14;82.16;100022.16;5053045;28;20478;-72
2021/01/27 06:04:25;;;;;;;15.82;7.35;;;;;;;-1.06;82.89;100033.34;5035785;28;20448;-72
2021/01/27 06:06:50;;;;;;;32.28;16.00;;;;;;;-1.07;83.43;100045.56;5024379;28;20033;-72
2021/01/27 06:09:42;;;;;;;30.55;13.85;;;;;;;-1.07;83.26;100047.31;5053433;28;20091;-69
2021/01/27 06:12:27;;;;;;;31.88;16.13;;;;;;;-1.36;83.12;100004.16;5035378;28;20040;-70
2021/01/27 06:15:04;;;;;;;34.67;17.73;;;;;;;-1.09;83.41;100051.72;5053598;28;20119;-70
2021/01/27 06:17:40;;;;;;;33.63;16.20;;;;;;;-1.14;83.44;100053.56;5053549;28;20100;-70
2021/01/27 06:20:14;;;;;;;30.25;16.15;;;;;;;-1.02;83.55;100042.88;5053347;28;20118;-69
2021/01/27 06:22:42;;;;;;;30.23;15.43;;;;;;;-1.01;83.10;100055.94;5053868;28;20029;-69
2021/01/27 06:25:41;;;;;;;34.45;16.65;;;;;;;-0.95;82.62;100053.25;5053372;28;20425;-69
2021/01/27 06:29:04;;;;;;;30.13;15.10;;;;;;;-0.91;82.46;100056.66;5052973;28;20483;-71
2021/01/27 06:32:04;;;;;;;30.23;15.65;;;;;;;-0.95;82.67;100055.84;4953476;29;20034;-69
2021/01/27 06:34:55;;;;;;;32.95;16.35;;;;;;;-1.00;82.35;100056.81;4953486;28;20110;-71
2021/01/27 06:37:43;;;;;;;35.03;16.27;;;;;;;-0.90;82.43;100079.34;5013819;28;20069;-68
2021/01/27 06:40:42;;;;;;;35.72;16.38;;;;;;;-0.91;82.18;100075.00;5032698;28;20033;-70
2021/01/27 06:43:27;;;;;;;35.63;17.27;;;;;;;-1.02;82.76;100054.22;5052531;28;20036;-70
2021/01/27 06:46:10;;;;;;;34.20;16.88;;;;;;;-1.05;82.56;100053.41;5052977;28;20020;-69
2021/01/27 06:48:50;;;;;;;35.67;17.27;;;;;;;-0.89;82.76;100075.81;5053691;28;20442;-70
2021/01/27 06:51:34;;;;;;;34.05;16.90;;;;;;;-0.78;82.31;100068.66;5053288;28;20056;-76
2021/01/27 06:54:21;;;;;;;31.75;15.48;;;;;;;-0.81;82.88;100075.69;5053433;28;20048;-70
2021/01/27 06:57:23;;;;;;;30.55;15.40;;;;;;;-0.72;82.12;100073.78;5053156;28;20490;-67
2021/01/27 07:00:07;;;;;;;30.52;16.02;;;;;;;-0.77;81.87;100046.81;5009592;28;20068;-69
2021/01/27 07:02:54;;;;;;;34.53;17.75;;;;;;;-0.56;81.53;100070.91;5053313;28;20025;-68
2021/01/27 07:06:02;;;;;;;30.25;16.30;;;;;;;-0.52;80.92;100060.34;5052568;28;20025;-68
2021/01/27 07:08:55;;;;;;;32.88;15.50;;;;;;;-0.46;81.16;100064.63;5004537;28;20116;-68
2021/01/27 07:11:57;;;;;;;29.83;14.47;;;;;;;-0.47;81.40;100057.66;5052401;28;20037;-67
2021/01/27 07:14:52;;;;;;;33.05;16.75;;;;;;;-0.39;81.05;100046.09;5052462;28;20458;-66
2021/01/27 07:17:55;;;;;;;33.55;15.93;;;;;;;-0.24;80.73;100060.69;5052470;28;20039;-70
2021/01/27 07:20:30;;;;;;;32.25;16.15;;;;;;;-0.16;80.73;100048.31;5034579;28;20151;-68
2021/01/27 07:23:43;;;;;;;33.97;17.40;;;;;;;-0.08;80.56;100048.16;5052895;28;20040;-68
2021/01/27 07:26:20;;;;;;;30.65;15.50;;;;;;;-0.07;80.30;100037.63;5006266;28;20437;-66
2021/01/27 07:29:08;;;;;;;33.47;17.95;;;;;;;0.05;81.26;100046.13;5052736;28;20136;-70
2021/01/27 07:31:46;;;;;;;36.05;17.05;;;;;;;-0.03;80.99;100007.81;5052769;28;20025;-68
2021/01/27 07:34:26;;;;;;;34.80;17.75;;;;;;;0.22;80.86;100044.91;5034576;28;20044;-72
2021/01/27 07:37:02;;;;;;;33.60;18.05;;;;;;;0.26;81.25;100048.31;5052595;28;20025;-71
2021/01/27 07:39:31;;;;;;;34.42;16.90;;;;;;;0.35;80.88;100039.38;5034692;28;20029;-71
2021/01/27 07:42:10;;;;;;;34.78;18.02;;;;;;;0.38;81.10;100032.28;5041195;28;20153;-71
2021/01/27 07:44:37;;;;;;;34.50;17.60;;;;;;;0.18;81.23;99995.13;5034570;28;20030;-70
2021/01/27 07:47:18;;;;;;;34.65;17.95;;;;;;;0.15;81.03;99985.59;5036940;28;20437;-69
2021/01/27 07:49:51;;;;;;;26.73;14.75;;;;;;;0.54;80.51;100031.06;5036772;28;20030;-71
2021/01/27 07:52:24;;;;;;;33.45;17.15;;;;;;;0.44;80.32;99991.94;5036884;28;20096;-68
2021/01/27 07:54:55;;;;;;;;;;;;;;;0.85;79.51;100027.69;5037197;28;20115;-67
2021/01/27 07:57:36;;;;;;;28.80;15.18;;;;;;;0.90;78.84;100023.22;5036050;28;20007;-67
2021/01/27 08:00:27;;;;;;;27.83;15.40;;;;;;;0.50;79.38;99974.28;5036311;28;20385;-68
2021/01/27 08:03:04;;;;;;;30.38;15.95;;;;;;;0.85;79.48;100025.06;5018981;28;20355;-68
2021/01/27 08:05:36;;;;;;;30.33;16.20;;;;;;;0.78;79.28;100020.91;5036118;28;20164;-69
2021/01/27 08:08:08;;;;;;;29.83;15.98;;;;;;;0.70;79.61;100025.47;5036291;28;20386;-68
2021/01/27 08:10:35;;;;;;;27.85;15.07;;;;;;;0.71;80.24;100028.03;5018234;28;20560;-68
2021/01/27 08:13:17;;;;;;;29.63;15.00;;;;;;;0.62;79.46;100017.75;5036429;28;20033;-68
2021/01/27 08:16:03;;;;;;;29.60;14.73;;;;;;;0.64;79.32;100031.69;5018952;28;20112;-68
2021/01/27 08:18:28;;;;;;;28.58;12.23;;;;;;;0.62;79.46;100032.66;5035829;28;20044;-68
2021/01/27 08:21:28;;;;;;;28.67;15.43;;;;;;;0.65;79.17;100041.31;5036034;28;20038;-68
2021/01/27 08:23:54;;;;;;;28.17;15.27;;;;;;;0.69;78.61;100042.13;5003167;28;20483;-68
2021/01/27 08:26:52;;;;;;;22.77;11.95;;;;;;;0.78;78.13;100044.53;5036007;28;20033;-68
2021/01/27 08:29:27;;;;;;;23.35;11.52;;;;;;;0.72;78.12;100049.91;5002303;28;20041;-69
2021/01/27 08:32:27;;;;;;;28.02;13.48;;;;;;;0.74;77.83;100048.09;5036103;28;20033;-68
2021/01/27 08:35:02;;;;;;;28.02;14.77;;;;;;;0.74;78.29;100048.09;5036013;28;20071;-68
2021/01/27 08:37:33;;;;;;;22.85;10.30;;;;;;;0.42;78.74;100019.97;5035905;28;20132;-69
2021/01/27 08:40:18;;;;;;;27.65;14.27;;;;;;;0.62;78.86;100051.88;5018287;28;20042;-68
2021/01/27 08:42:54;;;;;;;28.65;14.05;;;;;;;0.52;79.04;100045.97;5036005;28;20471;-68
2021/01/27 08:45:22;;;;;;;25.10;13.70;;;;;;;0.67;79.44;100049.13;5035357;28;20022;-68
2021/01/27 08:47:50;;;;;;;26.60;13.52;;;;;;;0.72;78.67;100037.66;5035467;28;20041;-68
2021/01/27 08:50:37;;;;;;;26.65;14.05;;;;;;;0.77;77.97;100051.53;5035171;28;20041;-69
2021/01/27 08:53:16;;;;;;;23.40;13.40;;;;;;;0.81;77.64;100044.44;5035569;28;20022;-68
2021/01/27 08:55:44;;;;;;;21.80;11.88;;;;;;;0.88;77.18;100045.16;5034299;28;20368;-68
2021/01/27 08:58:26;;;;;;;23.63;12.45;;;;;;;0.94;76.99;100047.63;5035383;28;20108;-69
2021/01/27 09:00:55;;;;;;;23.83;11.95;;;;;;;0.83;76.73;100029.50;5035343;28;20475;-67
2021/01/27 09:03:49;;;;;;;25.30;11.70;;;;;;;0.98;76.24;100047.53;5033997;28;20550;-67
2021/01/27 09:06:25;;;;;;;23.27;12.40;;;;;;;1.07;76.45;100052.56;5033117;28;20077;-69
2021/01/27 09:08:53;;;;;;;22.15;11.32;;;;;;;1.02;75.60;100029.94;5035187;28;20398;-68
2021/01/27 09:11:19;;;;;;;24.58;11.60;;;;;;;1.22;75.06;100045.19;5001032;28;20445;-68
2021/01/27 09:13:46;;;;;;;23.13;11.55;;;;;;;1.36;74.81;100056.22;5017556;28;20063;-70
2021/01/27 09:16:13;;;;;;;25.05;12.98;;;;;;;1.14;75.81;100033.09;5033809;28;20033;-72
2021/01/27 09:18:40;;;;;;;24.65;13.00;;;;;;;1.33;75.31;100051.88;5035015;28;20030;-69
2021/01/27 09:21:16;;;;;;;22.77;12.05;;;;;;;1.38;75.21;100057.03;5017464;28;20033;-69
2021/01/27 09:23:43;;;;;;;19.23;8.73;;;;;;;1.28;73.99;100034.53;5035031;28;20117;-68
2021/01/27 09:26:20;;;;;;;20.55;10.75;;;;;;;1.15;73.30;99990.16;5035110;28;20040;-68
2021/01/27 09:28:47;;;;;;;18.30;9.02;;;;;;;1.38;73.69;100028.13;5035087;28;20120;-68
2021/01/27 09:31:23;;;;;;;22.30;10.80;;;;;;;1.13;73.36;99972.72;5034745;28;20056;-74
2021/01/27 09:33:50;;;;;;;23.42;11.25;;;;;;;1.56;73.05;100038.16;5034681;28;20029;-69
2021/01/27 09:36:18;;;;;;;18.83;9.93;;;;;;;1.56;72.35;100048.69;5016925;28;20099;-68
2021/01/27 09:38:43;;;;;;;21.55;11.02;;;;;;;1.50;73.26;100040.94;5034695;28;20021;-68
2021/01/27 09:41:13;;;;;;;19.83;9.93;;;;;;;1.46;73.82;100023.53;5036891;28;20124;-68
2021/01/27 09:43:46;;;;;;;20.10;10.75;;;;;;;1.68;73.38;100043.09;5034391;28;20037;-69
2021/01/27 09:46:36;;;;;;;23.48;11.63;;;;;;;1.73;72.82;100059.56;5034528;28;20036;-68
2021/01/27 09:49:09;;;;;;;23.52;10.38;;;;;;;1.82;72.88;100047.94;5016900;28;20509;-68
2021/01/27 09:51:35;;;;;;;;;;;;;;;1.78;72.31;100040.19;5034876;28;20048;-69
2021/01/27 09:54:02;;;;;;;11.32;5.85;;;;;;;1.59;72.65;100042.47;5034378;28;20055;-68
2021/01/27 09:56:30;;;;;;;16.10;6.97;;;;;;;1.33;73.21;100028.25;5016088;28;20034;-68
2021/01/27 09:58:57;;;;;;;21.02;10.73;;;;;;;1.49;73.48;100039.22;5034323;28;20439;-69
2021/01/27 10:01:26;;;;;;;20.13;10.90;;;;;;;1.47;73.54;100043.66;5034080;28;20055;-69
2021/01/27 10:03:54;;;;;;;19.17;10.52;;;;;;;1.53;72.40;100019.81;5033985;28;20029;-68
2021/01/27 10:06:34;;;;;;;21.17;11.23;;;;;;;1.55;72.59;100033.81;5033826;28;20069;-67
2021/01/27 10:09:05;;;;;;;15.05;8.10;;;;;;;1.38;73.08;100036.00;5034288;28;20037;-68
2021/01/27 10:11:35;;;;;;;18.13;10.10;;;;;;;1.42;72.98;100032.41;5034069;28;20481;-67
2021/01/27 10:14:08;;;;;;;18.75;11.25;;;;;;;1.36;72.78;99994.00;5034119;28;20049;-68
2021/01/27 10:16:51;;;;;;;23.70;11.07;;;;;;;1.61;72.41;100035.41;5033643;28;20502;-67
2021/01/27 10:19:36;;;;;;;20.67;10.25;;;;;;;1.51;71.12;100015.50;5034035;28;20034;-69
2021/01/27 10:22:05;;;;;;;14.70;6.93;;;;;;;1.28;71.02;99981.97;5033762;28;20041;-67
2021/01/27 10:24:40;;;;;;;20.60;10.07;;;;;;;1.56;71.56;100019.75;5033830;28;20036;-67
2021/01/27 10:27:06;;;;;;;17.60;9.55;;;;;;;1.72;70.33;100010.53;5033656;28;20362;-68
2021/01/27 10:29:38;;;;;;;18.58;9.25;;;;;;;1.72;69.47;100005.25;5015786;28;20031;-68
2021/01/27 10:32:37;;;;;;;15.75;8.75;;;;;;;1.80;69.29;100018.22;5033519;28;20029;-70
2021/01/27 10:35:23;;;;;;;17.20;9.20;;;;;;;1.69;69.06;100015.88;4980415;28;20398;-67
2021/01/27 10:37:50;;;;;;;20.20;9.45;;;;;;;1.75;69.30;100021.88;5033331;28;20026;-69
2021/01/27 10:40:24;;;;;;;18.05;9.25;;;;;;;1.97;69.69;100020.38;5016013;28;20135;-68
2021/01/27 10:42:56;;;;;;;14.98;8.00;;;;;;;1.83;69.03;99994.44;5033634;28;20041;-69
2021/01/27 10:45:34;;;;;;;17.48;9.02;;;;;;;1.96;69.04;100013.38;5015811;28;20379;-68
2021/01/27 10:48:13;;;;;;;18.70;9.93;;;;;;;1.82;70.08;100020.78;5033226;28;20045;-67
2021/01/27 10:50:46;;;;;;;19.27;9.27;;;;;;;1.82;70.55;100019.03;5032992;28;20033;-68
2021/01/27 10:53:14;;;;;;;15.48;9.18;;;;;;;1.67;70.55;99985.28;5015629;28;20121;-67
2021/01/27 10:55:41;;;;;;;16.10;8.23;;;;;;;1.74;69.82;100005.25;5033469;28;20138;-68
2021/01/27 10:58:13;;;;;;;10.88;5.82;;;;;;;1.86;70.48;100017.19;5033129;28;20363;-68
2021/01/27 11:00:39;;;;;;;15.40;8.65;;;;;;;1.92;70.48;100007.31;5032870;28;20040;-68
2021/01/27 11:03:07;;;;;;;15.05;8.88;;;;;;;1.80;70.34;99956.84;5033242;28;20552;-68
2021/01/27 11:05:33;;;;;;;18.25;8.80;;;;;;;2.03;69.67;99977.22;5034891;28;20402;-68
2021/01/27 11:08:00;;;;;;;17.92;9.25;;;;;;;2.15;68.98;100004.03;5016924;28;20033;-69
2021/01/27 11:10:27;;;;;;;16.27;8.20;;;;;;;2.19;68.88;99984.59;5033322;28;20037;-68
2021/01/27 11:12:52;;;;;;;18.63;8.43;;;;;;;2.18;67.47;99998.69;5015670;28;20044;-68
2021/01/27 11:15:18;;;;;;;11.25;6.28;;;;;;;2.18;68.08;99998.69;5015355;28;20402;-68
2021/01/27 11:17:44;;;;;;;16.75;8.38;;;;;;;2.24;67.79;99987.13;5015269;28;20046;-68
2021/01/27 11:20:10;;;;;;;10.00;4.82;;;;;;;1.88;68.13;99946.97;5032070;28;20033;-68
2021/01/27 11:22:35;;;;;;;14.73;7.72;;;;;;;2.07;68.56;99979.72;5015219;28;20133;-67
2021/01/27 11:25:02;;;;;;;11.88;6.63;;;;;;;2.22;67.28;99995.06;5032887;28;20120;-68
2021/01/27 11:27:27;;;;;;;12.32;6.72;;;;;;;2.11;67.62;99983.13;5033025;28;20064;-69
2021/01/27 11:29:53;;;;;;;13.63;6.85;;;;;;;2.40;66.84;99998.03;5015749;28;20471;-68
2021/01/27 11:32:18;;;;;;;13.70;6.70;;;;;;;2.45;65.43;99999.63;4998705;28;20091;-68
2021/01/27 11:34:44;;;;;;;12.80;7.00;;;;;;;2.45;64.74;99998.75;5032619;28;20518;-68
2021/01/27 11:37:10;;;;;;;14.10;7.13;;;;;;;2.58;64.43;99981.66;5015487;28;20120;-67
2021/01/27 11:39:36;;;;;;;14.35;7.35;;;;;;;2.83;64.73;99992.28;5014843;28;20061;-69
2021/01/27 11:42:02;;;;;;;14.40;6.60;;;;;;;2.64;65.05;99964.81;5031851;28;20524;-69
2021/01/27 11:44:28;;;;;;;11.30;5.80;;;;;;;2.66;65.07;99987.53;5051285;28;20110;-68
2021/01/27 11:46:53;;;;;;;15.10;7.35;;;;;;;2.54;64.95;99977.41;5051479;28;20045;-68
2021/01/27 11:49:19;;;;;;;13.35;7.55;;;;;;;2.69;64.12;99990.06;5052578;28;20025;-68
2021/01/27 11:51:44;;;;;;;10.38;5.50;;;;;;;2.77;64.14;99997.72;5052538;28;20041;-69
2021/01/27 11:54:10;;;;;;;14.20;6.28;;;;;;;2.74;63.51;100006.59;5052751;28;20040;-68